createdAt,value
2022-10-04T00:04:35.860Z,94092.11
2022-10-04T00:09:55.909Z,94081.11
2022-10-04T00:15:07.154Z,94077.77
2022-10-04T00:20:54.438Z,94079.37
2022-10-04T00:26:05.642Z,94075.30
2022-10-04T00:31:30.200Z,94075.05
2022-10-04T00:36:56.199Z,94076.70
2022-10-04T00:42:37.079Z,94070.87
2022-10-04T00:48:01.112Z,94079.73
2022-10-04T00:53:19.632Z,94077.12
2022-10-04T00:58:35.242Z,94073.47
2022-10-04T01:03:46.299Z,94076.91
2022-10-04T01:08:56.998Z,94071.17
2022-10-04T01:14:23.477Z,94056.59
2022-10-04T01:19:36.048Z,94063.41
2022-10-04T01:24:46.342Z,94061.42
2022-10-04T01:29:55.007Z,94058.83
2022-10-04T01:35:01.661Z,94053.05
2022-10-04T01:40:11.727Z,94054.39
2022-10-04T01:45:28.958Z,94051.05
2022-10-04T01:50:42.914Z,94046.56
2022-10-04T01:55:56.547Z,94045.73
2022-10-04T02:01:10.914Z,94043.53
2022-10-04T02:06:19.606Z,94047.73
2022-10-04T02:11:30.492Z,94057.52
2022-10-04T02:16:40.383Z,94040.97
2022-10-04T02:21:50.369Z,94042.03
2022-10-04T02:26:57.999Z,94045.24
2022-10-04T02:32:25.869Z,94055.07
2022-10-04T02:37:32.684Z,94045.58
2022-10-04T02:43:04.814Z,94044.96
2022-10-04T02:48:38.059Z,94050.77
2022-10-04T02:54:03.675Z,94053.66
2022-10-04T02:59:19.632Z,94054.03
2022-10-04T03:04:29.762Z,94052.95
2022-10-04T03:09:38.657Z,94051.00
2022-10-04T03:14:46.016Z,94046.67
2022-10-04T03:19:54.116Z,94049.88
2022-10-04T03:25:02.428Z,94044.91
2022-10-04T03:30:14.699Z,94045.71
2022-10-04T03:35:38.122Z,94038.44
2022-10-04T03:40:50.899Z,94042.72
2022-10-04T03:45:58.841Z,94040.84
2022-10-04T03:51:08.717Z,94041.77
2022-10-04T03:56:25.579Z,94038.47
2022-10-04T04:01:47.399Z,94045.19
2022-10-04T04:07:03.807Z,94044.19
2022-10-04T04:12:27.776Z,94049.47
2022-10-04T04:17:42.911Z,94050.09
2022-10-04T04:23:12.031Z,94041.83
2022-10-04T04:28:38.269Z,94042.58
2022-10-04T04:34:06.717Z,94043.37
2022-10-04T04:39:36.885Z,94043.70
2022-10-04T04:45:08.398Z,94057.30
2022-10-04T04:50:22.482Z,94050.97
2022-10-04T04:55:50.095Z,94060.80
2022-10-04T05:00:43.498Z,94063.23
2022-10-04T05:05:52.026Z,94066.89
2022-10-04T05:11:16.977Z,94069.66
2022-10-04T05:16:46.569Z,94068.41
2022-10-04T05:21:56.707Z,94072.45
2022-10-04T05:27:07.432Z,94089.33
2022-10-04T05:32:30.679Z,94092.50
2022-10-04T05:38:07.443Z,94098.16
2022-10-04T05:43:33.770Z,94099.23
2022-10-04T05:48:43.904Z,94090.19
2022-10-04T05:53:51.942Z,94082.23
2022-10-04T05:59:35.453Z,94082.38
2022-10-04T06:05:18.213Z,94074.98
2022-10-04T06:10:41.308Z,94089.56
2022-10-04T06:16:13.612Z,94097.02
2022-10-04T06:21:24.764Z,94100.41
2022-10-04T06:26:35.929Z,94107.93
2022-10-04T06:32:04.835Z,94111.90
2022-10-04T06:37:42.401Z,94102.75
2022-10-04T06:43:28.329Z,94111.20
2022-10-04T06:49:00.438Z,94119.95
2022-10-04T06:54:25.121Z,94118.58
2022-10-04T06:59:39.801Z,94110.67
2022-10-04T07:05:16.690Z,94119.46
2022-10-04T07:10:33.745Z,94130.53
2022-10-04T07:16:07.015Z,94131.42
2022-10-04T07:21:19.152Z,94130.41
2022-10-04T07:26:42.306Z,94141.25
2022-10-04T07:32:06.201Z,94147.12
2022-10-04T07:37:15.969Z,94154.64
2022-10-04T07:43:00.676Z,94152.12
2022-10-04T07:48:27.246Z,94160.38
2022-10-04T07:54:06.558Z,94157.14
2022-10-04T07:59:43.417Z,94169.02
2022-10-04T08:05:26.441Z,94161.02
2022-10-04T08:10:57.713Z,94169.82
2022-10-04T08:16:09.045Z,94166.44
2022-10-04T08:21:27.411Z,94170.88
2022-10-04T08:27:16.568Z,94170.44
2022-10-04T08:32:44.040Z,94166.40
2022-10-04T08:38:31.660Z,94157.88
2022-10-04T08:44:20.625Z,94152.80
2022-10-04T08:50:11.988Z,94169.28
2022-10-04T08:55:45.357Z,94173.27
2022-10-04T09:01:26.620Z,94165.94
2022-10-04T09:07:21.657Z,94153.98
2022-10-04T09:13:22.591Z,94154.78
2022-10-04T09:19:12.741Z,94155.85
2022-10-04T09:24:43.592Z,94155.05
2022-10-04T09:30:26.446Z,94151.98
2022-10-04T09:35:46.578Z,94158.52
2022-10-04T09:41:35.426Z,94162.28
2022-10-04T09:47:07.789Z,94150.73
2022-10-04T09:52:40.786Z,94161.55
2022-10-04T09:58:13.787Z,94159.17
2022-10-04T10:03:36.213Z,94160.70
2022-10-04T10:09:05.361Z,94160.80
2022-10-04T10:14:37.373Z,94163.95
2022-10-04T10:20:23.241Z,94165.44
2022-10-04T10:26:17.011Z,94158.01
2022-10-04T10:32:02.571Z,94158.22
2022-10-04T10:37:33.336Z,94159.75
2022-10-04T10:43:00.079Z,94159.12
2022-10-04T10:48:38.385Z,94160.48
2022-10-04T10:54:21.657Z,94160.04
2022-10-04T11:00:05.980Z,94160.71
2022-10-04T11:06:02.009Z,94156.67
2022-10-04T11:12:01.785Z,94159.17
2022-10-04T11:17:32.481Z,94157.36
2022-10-04T11:23:05.738Z,94153.44
2022-10-04T11:28:48.742Z,94153.27
2022-10-04T11:34:16.779Z,94152.39
2022-10-04T11:39:47.645Z,94141.19
2022-10-04T11:45:32.037Z,94142.18
2022-10-04T11:50:45.747Z,94143.80
2022-10-04T11:56:32.367Z,94142.34
2022-10-04T12:02:04.264Z,94145.02
2022-10-04T12:07:31.725Z,94134.89
2022-10-04T12:13:16.151Z,94128.30
2022-10-04T12:18:39.250Z,94125.58
2022-10-04T12:23:59.030Z,94121.61
2022-10-04T12:29:22.012Z,94123.83
2022-10-04T12:34:37.098Z,94122.31
2022-10-04T12:40:03.173Z,94116.03
2022-10-04T12:45:41.444Z,94115.91
2022-10-04T12:51:32.783Z,94117.45
2022-10-04T12:57:01.171Z,94109.73
2022-10-04T13:02:56.140Z,94111.78
2022-10-04T13:08:22.143Z,94104.04
2022-10-04T13:13:45.071Z,94098.62
2022-10-04T13:19:09.578Z,94102.52
2022-10-04T13:24:24.500Z,94098.73
2022-10-04T13:29:44.535Z,94105.06
2022-10-04T13:35:07.437Z,94116.70
2022-10-04T13:40:56.593Z,94106.16
2022-10-04T13:46:25.367Z,94111.97
2022-10-04T13:51:54.205Z,94114.28
2022-10-04T13:57:22.970Z,94113.44
2022-10-04T14:02:39.759Z,94114.80
2022-10-04T14:08:11.789Z,94120.26
2022-10-04T14:13:43.603Z,94122.41
2022-10-04T14:19:17.641Z,94122.45
2022-10-04T14:24:42.911Z,94127.67
2022-10-04T14:30:07.694Z,94135.41
2022-10-04T14:35:29.537Z,94131.81
2022-10-04T14:40:43.566Z,94132.05
2022-10-04T14:46:39.644Z,94136.12
2022-10-04T14:52:25.635Z,94139.73
2022-10-04T14:58:21.705Z,94137.66
2022-10-04T15:03:55.827Z,94142.72
2022-10-04T15:09:21.423Z,94141.23
2022-10-04T15:15:15.187Z,94149.89
2022-10-04T15:20:57.586Z,94154.87
2022-10-04T15:26:26.695Z,94147.73
2022-10-04T15:32:07.069Z,94154.73
2022-10-04T15:37:22.974Z,94157.49
2022-10-04T15:42:38.686Z,94159.96
2022-10-04T15:47:59.297Z,94166.84
2022-10-04T15:54:00.298Z,94170.64
2022-10-04T15:59:21.175Z,94174.79
2022-10-04T16:05:04.163Z,94171.45
2022-10-04T16:10:34.426Z,94179.07
2022-10-04T16:16:19.999Z,94179.89
2022-10-04T16:21:50.676Z,94182.31
2022-10-04T16:27:08.940Z,94184.03
2022-10-04T16:32:27.388Z,94190.33
2022-10-04T16:38:16.501Z,94197.05
2022-10-04T16:43:32.024Z,94200.33
2022-10-04T16:48:57.529Z,94202.23
2022-10-04T16:54:58.693Z,94217.16
2022-10-04T17:00:39.676Z,94231.55
2022-10-04T17:06:06.234Z,94231.29
2022-10-04T17:11:36.484Z,94240.34
2022-10-04T17:16:58.286Z,94253.66
2022-10-04T17:22:29.472Z,94261.59
2022-10-04T17:27:58.641Z,94276.17
2022-10-04T17:33:37.893Z,94274.47
2022-10-04T17:39:09.617Z,94280.50
2022-10-04T17:44:38.942Z,94283.48
2022-10-04T17:50:13.186Z,94288.45
2022-10-04T17:55:26.362Z,94290.07
2022-10-04T18:00:53.878Z,94282.81
2022-10-04T18:06:05.506Z,94284.48
2022-10-04T18:11:35.737Z,94289.48
2022-10-04T18:17:13.441Z,94297.52
2022-10-04T18:22:25.337Z,94307.52
2022-10-04T18:27:36.297Z,94311.59
2022-10-04T18:32:53.121Z,94322.56
2022-10-04T18:38:25.984Z,94317.28
2022-10-04T18:43:54.643Z,94320.78
2022-10-04T18:49:25.481Z,94325.54
2022-10-04T18:54:56.432Z,94327.05
2022-10-04T19:00:30.963Z,94324.11
2022-10-04T19:06:03.378Z,94335.92
2022-10-04T19:11:26.672Z,94339.73
2022-10-04T19:16:55.921Z,94343.06
2022-10-04T19:22:19.060Z,94349.80
2022-10-04T19:27:40.242Z,94344.12
2022-10-04T19:33:28.007Z,94346.43
2022-10-04T19:38:57.174Z,94355.17
2022-10-04T19:44:16.680Z,94366.83
2022-10-04T19:49:48.753Z,94369.76
2022-10-04T19:55:12.341Z,94368.23
2022-10-04T20:00:20.498Z,94373.37
2022-10-04T20:05:29.353Z,94377.09
2022-10-04T20:10:39.588Z,94372.62
2022-10-04T20:15:51.372Z,94376.05
2022-10-04T20:21:04.027Z,94385.67
2022-10-04T20:26:55.847Z,94391.25
2022-10-04T20:32:04.487Z,94381.97
2022-10-04T20:37:14.312Z,94387.31
2022-10-04T20:42:37.810Z,94388.80
2022-10-04T20:48:02.597Z,94398.30
2022-10-04T20:53:30.563Z,94401.30
2022-10-04T20:58:38.176Z,94397.31
2022-10-04T21:03:48.411Z,94407.98
2022-10-04T21:08:55.694Z,94412.64
2022-10-04T21:14:02.890Z,94416.59
2022-10-04T21:19:40.753Z,94407.28
2022-10-04T21:25:00.662Z,94413.61
2022-10-04T21:30:21.136Z,94429.77
2022-10-04T21:35:28.588Z,94429.24
2022-10-04T21:40:38.803Z,94425.70
2022-10-04T21:45:46.183Z,94433.19
2022-10-04T21:50:57.992Z,94435.26
2022-10-04T21:56:07.738Z,94437.76
2022-10-04T22:01:16.524Z,94435.88
2022-10-04T22:06:23.713Z,94432.67
2022-10-04T22:11:31.601Z,94433.73
2022-10-04T22:16:39.493Z,94438.09
2022-10-04T22:21:47.177Z,94440.94
2022-10-04T22:26:53.873Z,94434.06
2022-10-04T22:32:01.337Z,94435.61
2022-10-04T22:37:15.534Z,94431.02
2022-10-04T22:42:23.736Z,94430.09
2022-10-04T22:47:33.102Z,94426.33
2022-10-04T22:52:41.802Z,94421.84
2022-10-04T22:57:51.366Z,94415.80
2022-10-04T23:02:58.873Z,94416.45
2022-10-04T23:08:07.197Z,94420.59
2022-10-04T23:13:15.132Z,94420.81
2022-10-04T23:18:27.394Z,94411.33
2022-10-04T23:23:35.542Z,94410.96
2022-10-04T23:28:42.427Z,94412.44
2022-10-04T23:33:49.381Z,94423.45
2022-10-04T23:39:01.728Z,94420.95
2022-10-04T23:44:16.967Z,94426.67
2022-10-04T23:49:25.235Z,94427.64
2022-10-04T23:54:35.601Z,94426.26
2022-10-04T23:59:45.504Z,94422.56
